sensor_id;sensor_type;location;lat;lon;timestamp;P1;durP1;ratioP1;P2;durP2;ratioP2
45007;SDS011;30743;52.008;5.644;2022-08-21T00:01:40;6.80;;;1.98;;
45007;SDS011;30743;52.008;5.644;2022-08-21T00:04:06;5.32;;;2.45;;
45007;SDS011;30743;52.008;5.644;2022-08-21T00:06:34;3.28;;;2.30;;
45007;SDS011;30743;52.008;5.644;2022-08-21T00:09:01;4.68;;;2.50;;
45007;SDS011;30743;52.008;5.644;2022-08-21T00:11:28;3.65;;;2.40;;
45007;SDS011;30743;52.008;5.644;2022-08-21T00:13:54;4.15;;;2.40;;
45007;SDS011;30743;52.008;5.644;2022-08-21T00:16:20;5.72;;;2.38;;
45007;SDS011;30743;52.008;5.644;2022-08-21T00:18:45;3.15;;;2.00;;
45007;SDS011;30743;52.008;5.644;2022-08-21T00:21:11;5.88;;;2.30;;
45007;SDS011;30743;52.008;5.644;2022-08-21T00:23:38;5.45;;;2.17;;
45007;SDS011;30743;52.008;5.644;2022-08-21T00:26:04;6.90;;;2.75;;
45007;SDS011;30743;52.008;5.644;2022-08-21T00:28:29;4.75;;;2.47;;
45007;SDS011;30743;52.008;5.644;2022-08-21T00:30:55;3.05;;;2.10;;
45007;SDS011;30743;52.008;5.644;2022-08-21T00:33:22;5.45;;;2.95;;
45007;SDS011;30743;52.008;5.644;2022-08-21T00:35:48;5.95;;;2.30;;
45007;SDS011;30743;52.008;5.644;2022-08-21T00:38:14;5.43;;;2.08;;
45007;SDS011;30743;52.008;5.644;2022-08-21T00:40:50;5.38;;;2.42;;
45007;SDS011;30743;52.008;5.644;2022-08-21T00:43:22;4.43;;;2.33;;
45007;SDS011;30743;52.008;5.644;2022-08-21T00:45:51;7.55;;;2.60;;
45007;SDS011;30743;52.008;5.644;2022-08-21T00:48:18;5.95;;;2.33;;
45007;SDS011;30743;52.008;5.644;2022-08-21T00:50:49;5.32;;;2.40;;
45007;SDS011;30743;52.008;5.644;2022-08-21T00:53:37;2.97;;;2.05;;
45007;SDS011;30743;52.008;5.644;2022-08-21T00:56:04;3.63;;;2.00;;
45007;SDS011;30743;52.008;5.644;2022-08-21T00:58:31;3.47;;;2.00;;
45007;SDS011;30743;52.008;5.644;2022-08-21T01:01:00;4.78;;;2.05;;
45007;SDS011;30743;52.008;5.644;2022-08-21T01:03:28;6.93;;;2.03;;
45007;SDS011;30743;52.008;5.644;2022-08-21T01:05:54;2.00;;;1.48;;
45007;SDS011;30743;52.008;5.644;2022-08-21T01:08:20;2.08;;;1.60;;
45007;SDS011;30743;52.008;5.644;2022-08-21T01:10:46;7.53;;;2.08;;
45007;SDS011;30743;52.008;5.644;2022-08-21T01:13:13;3.10;;;1.75;;
45007;SDS011;30743;52.008;5.644;2022-08-21T01:15:42;5.03;;;2.20;;
45007;SDS011;30743;52.008;5.644;2022-08-21T01:18:11;3.60;;;2.33;;
45007;SDS011;30743;52.008;5.644;2022-08-21T01:20:37;4.05;;;2.38;;
45007;SDS011;30743;52.008;5.644;2022-08-21T01:23:06;3.80;;;2.50;;
45007;SDS011;30743;52.008;5.644;2022-08-21T01:25:32;4.18;;;2.67;;
45007;SDS011;30743;52.008;5.644;2022-08-21T01:28:00;3.10;;;2.20;;
45007;SDS011;30743;52.008;5.644;2022-08-21T01:30:31;4.80;;;2.40;;
45007;SDS011;30743;52.008;5.644;2022-08-21T01:33:01;6.60;;;3.10;;
45007;SDS011;30743;52.008;5.644;2022-08-21T01:35:27;3.25;;;2.20;;
45007;SDS011;30743;52.008;5.644;2022-08-21T01:37:52;2.92;;;2.20;;
45007;SDS011;30743;52.008;5.644;2022-08-21T01:40:18;3.58;;;2.38;;
45007;SDS011;30743;52.008;5.644;2022-08-21T01:42:44;2.95;;;1.85;;
45007;SDS011;30743;52.008;5.644;2022-08-21T01:45:11;3.97;;;2.55;;
45007;SDS011;30743;52.008;5.644;2022-08-21T01:47:38;5.03;;;2.60;;
45007;SDS011;30743;52.008;5.644;2022-08-21T01:50:07;3.88;;;2.20;;
45007;SDS011;30743;52.008;5.644;2022-08-21T01:52:35;3.42;;;2.28;;
45007;SDS011;30743;52.008;5.644;2022-08-21T01:55:01;7.35;;;2.47;;
45007;SDS011;30743;52.008;5.644;2022-08-21T01:57:26;3.50;;;2.30;;
45007;SDS011;30743;52.008;5.644;2022-08-21T01:59:52;4.80;;;2.50;;
45007;SDS011;30743;52.008;5.644;2022-08-21T02:02:18;6.03;;;2.92;;
45007;SDS011;30743;52.008;5.644;2022-08-21T02:04:44;3.70;;;2.50;;
45007;SDS011;30743;52.008;5.644;2022-08-21T02:07:09;9.38;;;3.00;;
45007;SDS011;30743;52.008;5.644;2022-08-21T02:09:35;5.45;;;2.35;;
45007;SDS011;30743;52.008;5.644;2022-08-21T02:12:00;2.35;;;2.08;;
45007;SDS011;30743;52.008;5.644;2022-08-21T02:14:26;3.38;;;2.28;;
45007;SDS011;30743;52.008;5.644;2022-08-21T02:16:51;4.43;;;1.98;;
45007;SDS011;30743;52.008;5.644;2022-08-21T02:19:17;3.67;;;2.13;;
45007;SDS011;30743;52.008;5.644;2022-08-21T02:21:42;4.90;;;2.65;;
45007;SDS011;30743;52.008;5.644;2022-08-21T02:24:08;4.10;;;2.60;;
45007;SDS011;30743;52.008;5.644;2022-08-21T02:26:34;3.13;;;2.25;;
45007;SDS011;30743;52.008;5.644;2022-08-21T02:29:00;4.68;;;2.85;;
45007;SDS011;30743;52.008;5.644;2022-08-21T02:31:26;7.53;;;2.55;;
45007;SDS011;30743;52.008;5.644;2022-08-21T02:33:52;4.65;;;2.40;;
45007;SDS011;30743;52.008;5.644;2022-08-21T02:36:17;3.40;;;2.47;;
45007;SDS011;30743;52.008;5.644;2022-08-21T02:38:43;3.85;;;2.47;;
45007;SDS011;30743;52.008;5.644;2022-08-21T02:41:12;5.95;;;2.60;;
45007;SDS011;30743;52.008;5.644;2022-08-21T02:43:40;3.90;;;2.58;;
45007;SDS011;30743;52.008;5.644;2022-08-21T02:46:06;5.45;;;2.83;;
45007;SDS011;30743;52.008;5.644;2022-08-21T02:48:33;3.65;;;2.30;;
45007;SDS011;30743;52.008;5.644;2022-08-21T02:51:06;2.92;;;2.35;;
45007;SDS011;30743;52.008;5.644;2022-08-21T02:53:38;4.32;;;2.40;;
45007;SDS011;30743;52.008;5.644;2022-08-21T02:56:06;3.33;;;2.33;;
45007;SDS011;30743;52.008;5.644;2022-08-21T02:58:39;3.65;;;2.63;;
45007;SDS011;30743;52.008;5.644;2022-08-21T03:01:06;3.90;;;2.17;;
45007;SDS011;30743;52.008;5.644;2022-08-21T03:03:34;6.90;;;2.58;;
45007;SDS011;30743;52.008;5.644;2022-08-21T03:06:00;3.65;;;2.33;;
45007;SDS011;30743;52.008;5.644;2022-08-21T03:08:26;3.88;;;1.80;;
45007;SDS011;30743;52.008;5.644;2022-08-21T03:10:52;3.42;;;2.50;;
45007;SDS011;30743;52.008;5.644;2022-08-21T03:13:18;4.03;;;2.88;;
45007;SDS011;30743;52.008;5.644;2022-08-21T03:15:46;5.93;;;3.83;;
45007;SDS011;30743;52.008;5.644;2022-08-21T03:18:13;7.28;;;3.53;;
45007;SDS011;30743;52.008;5.644;2022-08-21T03:20:39;4.38;;;3.00;;
45007;SDS011;30743;52.008;5.644;2022-08-21T03:23:06;5.13;;;3.25;;
45007;SDS011;30743;52.008;5.644;2022-08-21T03:25:32;5.60;;;3.40;;
45007;SDS011;30743;52.008;5.644;2022-08-21T03:27:59;7.20;;;3.67;;
45007;SDS011;30743;52.008;5.644;2022-08-21T03:30:26;5.53;;;3.35;;
45007;SDS011;30743;52.008;5.644;2022-08-21T03:32:51;5.38;;;3.53;;
45007;SDS011;30743;52.008;5.644;2022-08-21T03:35:17;7.40;;;3.08;;
45007;SDS011;30743;52.008;5.644;2022-08-21T03:37:44;5.43;;;3.78;;
45007;SDS011;30743;52.008;5.644;2022-08-21T03:40:10;4.30;;;2.97;;
45007;SDS011;30743;52.008;5.644;2022-08-21T03:42:37;4.13;;;2.83;;
45007;SDS011;30743;52.008;5.644;2022-08-21T03:45:04;3.97;;;2.70;;
45007;SDS011;30743;52.008;5.644;2022-08-21T03:47:30;4.90;;;2.65;;
45007;SDS011;30743;52.008;5.644;2022-08-21T03:49:55;3.63;;;2.30;;
45007;SDS011;30743;52.008;5.644;2022-08-21T03:52:21;5.85;;;3.60;;
45007;SDS011;30743;52.008;5.644;2022-08-21T03:54:47;6.60;;;5.28;;
45007;SDS011;30743;52.008;5.644;2022-08-21T03:57:13;9.95;;;5.97;;
45007;SDS011;30743;52.008;5.644;2022-08-21T03:59:38;7.15;;;5.57;;
45007;SDS011;30743;52.008;5.644;2022-08-21T04:02:05;5.97;;;4.70;;
45007;SDS011;30743;52.008;5.644;2022-08-21T04:04:31;5.75;;;4.30;;
45007;SDS011;30743;52.008;5.644;2022-08-21T04:06:58;6.05;;;4.47;;
45007;SDS011;30743;52.008;5.644;2022-08-21T04:09:24;5.88;;;4.80;;
45007;SDS011;30743;52.008;5.644;2022-08-21T04:11:50;6.47;;;4.82;;
45007;SDS011;30743;52.008;5.644;2022-08-21T04:14:16;7.07;;;4.85;;
45007;SDS011;30743;52.008;5.644;2022-08-21T04:16:42;6.20;;;4.80;;
45007;SDS011;30743;52.008;5.644;2022-08-21T04:19:09;8.95;;;4.28;;
45007;SDS011;30743;52.008;5.644;2022-08-21T04:21:36;6.03;;;4.25;;
45007;SDS011;30743;52.008;5.644;2022-08-21T04:24:03;4.40;;;3.33;;
45007;SDS011;30743;52.008;5.644;2022-08-21T04:26:30;5.38;;;3.58;;
45007;SDS011;30743;52.008;5.644;2022-08-21T04:28:56;4.90;;;3.30;;
45007;SDS011;30743;52.008;5.644;2022-08-21T04:31:23;6.15;;;4.22;;
45007;SDS011;30743;52.008;5.644;2022-08-21T04:33:49;7.20;;;4.32;;
45007;SDS011;30743;52.008;5.644;2022-08-21T04:36:15;5.25;;;4.00;;
45007;SDS011;30743;52.008;5.644;2022-08-21T04:38:41;8.27;;;4.97;;
45007;SDS011;30743;52.008;5.644;2022-08-21T04:41:07;6.60;;;4.00;;
45007;SDS011;30743;52.008;5.644;2022-08-21T04:43:32;4.65;;;2.65;;
45007;SDS011;30743;52.008;5.644;2022-08-21T04:45:58;6.00;;;3.03;;
45007;SDS011;30743;52.008;5.644;2022-08-21T04:48:25;4.60;;;2.97;;
45007;SDS011;30743;52.008;5.644;2022-08-21T04:55:56;11.63;;;3.37;;
45007;SDS011;30743;52.008;5.644;2022-08-21T04:58:24;3.90;;;3.42;;
45007;SDS011;30743;52.008;5.644;2022-08-21T05:00:52;3.72;;;3.30;;
45007;SDS011;30743;52.008;5.644;2022-08-21T05:03:21;9.20;;;4.00;;
45007;SDS011;30743;52.008;5.644;2022-08-21T05:05:47;5.72;;;3.58;;
45007;SDS011;30743;52.008;5.644;2022-08-21T05:08:14;5.78;;;4.18;;
45007;SDS011;30743;52.008;5.644;2022-08-21T05:10:42;7.55;;;4.80;;
45007;SDS011;30743;52.008;5.644;2022-08-21T05:13:09;6.78;;;4.47;;
45007;SDS011;30743;52.008;5.644;2022-08-21T05:15:35;9.45;;;4.40;;
45007;SDS011;30743;52.008;5.644;2022-08-21T05:18:02;5.30;;;4.05;;
45007;SDS011;30743;52.008;5.644;2022-08-21T05:20:28;7.30;;;3.60;;
45007;SDS011;30743;52.008;5.644;2022-08-21T05:22:54;6.35;;;4.25;;
45007;SDS011;30743;52.008;5.644;2022-08-21T05:25:20;7.40;;;5.45;;
45007;SDS011;30743;52.008;5.644;2022-08-21T05:27:45;7.45;;;5.63;;
45007;SDS011;30743;52.008;5.644;2022-08-21T05:30:11;11.52;;;5.72;;
45007;SDS011;30743;52.008;5.644;2022-08-21T05:32:37;10.02;;;6.43;;
45007;SDS011;30743;52.008;5.644;2022-08-21T05:35:06;10.13;;;6.70;;
45007;SDS011;30743;52.008;5.644;2022-08-21T05:37:33;9.50;;;6.22;;
45007;SDS011;30743;52.008;5.644;2022-08-21T05:39:59;7.93;;;6.38;;
45007;SDS011;30743;52.008;5.644;2022-08-21T05:42:25;9.20;;;6.85;;
45007;SDS011;30743;52.008;5.644;2022-08-21T05:44:52;8.27;;;6.75;;
45007;SDS011;30743;52.008;5.644;2022-08-21T05:47:18;11.45;;;7.10;;
45007;SDS011;30743;52.008;5.644;2022-08-21T05:49:43;9.00;;;6.82;;
45007;SDS011;30743;52.008;5.644;2022-08-21T05:52:09;12.68;;;6.97;;
45007;SDS011;30743;52.008;5.644;2022-08-21T05:54:35;13.18;;;7.68;;
45007;SDS011;30743;52.008;5.644;2022-08-21T05:57:02;9.93;;;7.05;;
45007;SDS011;30743;52.008;5.644;2022-08-21T05:59:28;10.63;;;6.90;;
45007;SDS011;30743;52.008;5.644;2022-08-21T06:01:54;10.00;;;7.05;;
45007;SDS011;30743;52.008;5.644;2022-08-21T06:04:19;9.25;;;6.78;;
45007;SDS011;30743;52.008;5.644;2022-08-21T06:06:45;13.25;;;7.35;;
45007;SDS011;30743;52.008;5.644;2022-08-21T06:09:12;8.32;;;6.45;;
45007;SDS011;30743;52.008;5.644;2022-08-21T06:11:37;13.05;;;6.50;;
45007;SDS011;30743;52.008;5.644;2022-08-21T06:14:03;10.77;;;6.50;;
45007;SDS011;30743;52.008;5.644;2022-08-21T06:16:31;8.13;;;6.78;;
45007;SDS011;30743;52.008;5.644;2022-08-21T06:18:56;11.50;;;6.60;;
45007;SDS011;30743;52.008;5.644;2022-08-21T06:21:22;12.38;;;6.22;;
45007;SDS011;30743;52.008;5.644;2022-08-21T06:23:47;9.48;;;6.10;;
45007;SDS011;30743;52.008;5.644;2022-08-21T06:26:13;9.25;;;5.65;;
45007;SDS011;30743;52.008;5.644;2022-08-21T06:28:39;8.27;;;5.43;;
45007;SDS011;30743;52.008;5.644;2022-08-21T06:31:10;9.95;;;5.82;;
45007;SDS011;30743;52.008;5.644;2022-08-21T06:33:49;11.52;;;5.28;;
45007;SDS011;30743;52.008;5.644;2022-08-21T06:36:15;10.32;;;5.13;;
45007;SDS011;30743;52.008;5.644;2022-08-21T06:38:41;11.63;;;5.00;;
45007;SDS011;30743;52.008;5.644;2022-08-21T06:41:07;12.00;;;5.53;;
45007;SDS011;30743;52.008;5.644;2022-08-21T06:43:32;9.60;;;4.93;;
45007;SDS011;30743;52.008;5.644;2022-08-21T06:45:58;7.50;;;4.47;;
45007;SDS011;30743;52.008;5.644;2022-08-21T06:48:24;11.65;;;5.05;;
45007;SDS011;30743;52.008;5.644;2022-08-21T06:50:49;9.20;;;4.72;;
45007;SDS011;30743;52.008;5.644;2022-08-21T06:53:17;8.27;;;4.00;;
45007;SDS011;30743;52.008;5.644;2022-08-21T06:55:45;10.00;;;4.95;;
45007;SDS011;30743;52.008;5.644;2022-08-21T06:58:12;10.65;;;4.60;;
45007;SDS011;30743;52.008;5.644;2022-08-21T07:00:39;10.70;;;4.13;;
45007;SDS011;30743;52.008;5.644;2022-08-21T07:03:06;8.90;;;4.27;;
45007;SDS011;30743;52.008;5.644;2022-08-21T07:05:32;6.82;;;4.05;;
45007;SDS011;30743;52.008;5.644;2022-08-21T07:07:58;12.32;;;4.65;;
45007;SDS011;30743;52.008;5.644;2022-08-21T07:10:24;9.15;;;4.07;;
45007;SDS011;30743;52.008;5.644;2022-08-21T07:12:50;9.30;;;4.63;;
45007;SDS011;30743;52.008;5.644;2022-08-21T07:15:18;13.75;;;4.60;;
45007;SDS011;30743;52.008;5.644;2022-08-21T07:17:44;7.85;;;4.10;;
45007;SDS011;30743;52.008;5.644;2022-08-21T07:20:09;10.57;;;4.25;;
45007;SDS011;30743;52.008;5.644;2022-08-21T07:22:36;7.38;;;3.80;;
45007;SDS011;30743;52.008;5.644;2022-08-21T07:25:04;13.18;;;4.90;;
45007;SDS011;30743;52.008;5.644;2022-08-21T07:27:30;12.43;;;4.63;;
45007;SDS011;30743;52.008;5.644;2022-08-21T07:29:56;8.15;;;4.30;;
45007;SDS011;30743;52.008;5.644;2022-08-21T07:32:22;10.57;;;4.10;;
45007;SDS011;30743;52.008;5.644;2022-08-21T07:34:47;8.13;;;4.03;;
45007;SDS011;30743;52.008;5.644;2022-08-21T07:37:13;12.82;;;4.25;;
45007;SDS011;30743;52.008;5.644;2022-08-21T07:39:38;10.10;;;3.97;;
45007;SDS011;30743;52.008;5.644;2022-08-21T07:42:04;9.05;;;4.15;;
45007;SDS011;30743;52.008;5.644;2022-08-21T07:44:29;10.98;;;4.53;;
45007;SDS011;30743;52.008;5.644;2022-08-21T07:46:55;10.95;;;4.30;;
45007;SDS011;30743;52.008;5.644;2022-08-21T07:49:20;11.00;;;3.88;;
45007;SDS011;30743;52.008;5.644;2022-08-21T07:51:46;10.30;;;3.88;;
45007;SDS011;30743;52.008;5.644;2022-08-21T07:54:11;8.35;;;3.70;;
45007;SDS011;30743;52.008;5.644;2022-08-21T07:56:37;9.23;;;3.35;;
45007;SDS011;30743;52.008;5.644;2022-08-21T07:59:02;11.23;;;3.50;;
45007;SDS011;30743;52.008;5.644;2022-08-21T08:01:28;8.73;;;3.47;;
45007;SDS011;30743;52.008;5.644;2022-08-21T08:03:55;9.07;;;3.88;;
45007;SDS011;30743;52.008;5.644;2022-08-21T08:06:21;8.60;;;3.50;;
45007;SDS011;30743;52.008;5.644;2022-08-21T08:08:47;9.43;;;3.17;;
45007;SDS011;30743;52.008;5.644;2022-08-21T08:11:13;8.68;;;3.40;;
45007;SDS011;30743;52.008;5.644;2022-08-21T08:13:43;6.68;;;2.67;;
45007;SDS011;30743;52.008;5.644;2022-08-21T08:16:10;9.18;;;3.75;;
45007;SDS011;30743;52.008;5.644;2022-08-21T08:18:36;7.50;;;2.80;;
45007;SDS011;30743;52.008;5.644;2022-08-21T08:21:03;10.50;;;3.38;;
45007;SDS011;30743;52.008;5.644;2022-08-21T08:23:30;8.30;;;2.90;;
45007;SDS011;30743;52.008;5.644;2022-08-21T08:25:56;9.75;;;3.72;;
45007;SDS011;30743;52.008;5.644;2022-08-21T08:28:22;7.05;;;2.50;;
45007;SDS011;30743;52.008;5.644;2022-08-21T08:30:48;6.78;;;2.70;;
45007;SDS011;30743;52.008;5.644;2022-08-21T08:33:14;5.80;;;2.90;;
45007;SDS011;30743;52.008;5.644;2022-08-21T08:35:44;7.45;;;2.83;;
45007;SDS011;30743;52.008;5.644;2022-08-21T08:38:12;6.70;;;2.58;;
45007;SDS011;30743;52.008;5.644;2022-08-21T08:40:44;9.27;;;3.05;;
45007;SDS011;30743;52.008;5.644;2022-08-21T08:43:17;10.52;;;3.08;;
45007;SDS011;30743;52.008;5.644;2022-08-21T08:45:44;6.20;;;2.35;;
45007;SDS011;30743;52.008;5.644;2022-08-21T08:48:15;7.10;;;2.53;;
45007;SDS011;30743;52.008;5.644;2022-08-21T08:50:56;7.10;;;2.45;;
45007;SDS011;30743;52.008;5.644;2022-08-21T08:55:54;7.35;;;2.33;;
45007;SDS011;30743;52.008;5.644;2022-08-21T08:58:29;6.93;;;2.60;;
45007;SDS011;30743;52.008;5.644;2022-08-21T09:01:01;8.05;;;2.30;;
45007;SDS011;30743;52.008;5.644;2022-08-21T09:03:31;5.53;;;2.42;;
45007;SDS011;30743;52.008;5.644;2022-08-21T09:06:01;5.53;;;2.00;;
45007;SDS011;30743;52.008;5.644;2022-08-21T09:22:08;5.47;;;1.90;;
45007;SDS011;30743;52.008;5.644;2022-08-21T09:27:27;6.03;;;2.00;;
45007;SDS011;30743;52.008;5.644;2022-08-21T09:29:56;6.63;;;1.95;;
45007;SDS011;30743;52.008;5.644;2022-08-21T09:32:25;8.50;;;2.15;;
45007;SDS011;30743;52.008;5.644;2022-08-21T09:34:56;6.65;;;1.77;;
45007;SDS011;30743;52.008;5.644;2022-08-21T09:37:22;6.43;;;1.90;;
45007;SDS011;30743;52.008;5.644;2022-08-21T09:39:48;8.80;;;1.73;;
45007;SDS011;30743;52.008;5.644;2022-08-21T09:42:21;6.22;;;1.58;;
45007;SDS011;30743;52.008;5.644;2022-08-21T09:44:48;6.90;;;1.60;;
45007;SDS011;30743;52.008;5.644;2022-08-21T09:47:29;6.63;;;1.48;;
45007;SDS011;30743;52.008;5.644;2022-08-21T09:49:55;5.75;;;1.77;;
45007;SDS011;30743;52.008;5.644;2022-08-21T09:52:22;5.60;;;1.90;;
45007;SDS011;30743;52.008;5.644;2022-08-21T09:54:52;5.47;;;1.60;;
45007;SDS011;30743;52.008;5.644;2022-08-21T09:57:23;5.35;;;1.40;;
45007;SDS011;30743;52.008;5.644;2022-08-21T10:00:08;3.70;;;1.10;;
45007;SDS011;30743;52.008;5.644;2022-08-21T10:02:43;7.13;;;1.77;;
45007;SDS011;30743;52.008;5.644;2022-08-21T10:05:17;4.00;;;1.38;;
45007;SDS011;30743;52.008;5.644;2022-08-21T10:07:48;6.40;;;1.70;;
45007;SDS011;30743;52.008;5.644;2022-08-21T10:12:58;6.35;;;1.52;;
45007;SDS011;30743;52.008;5.644;2022-08-21T10:18:09;6.53;;;1.75;;
45007;SDS011;30743;52.008;5.644;2022-08-21T10:20:52;7.35;;;1.55;;
45007;SDS011;30743;52.008;5.644;2022-08-21T10:26:45;3.47;;;1.25;;
45007;SDS011;30743;52.008;5.644;2022-08-21T10:35:10;6.97;;;1.60;;
45007;SDS011;30743;52.008;5.644;2022-08-21T10:40:31;5.15;;;1.55;;
45007;SDS011;30743;52.008;5.644;2022-08-21T10:48:39;4.22;;;1.08;;
45007;SDS011;30743;52.008;5.644;2022-08-21T10:56:40;4.00;;;1.55;;
45007;SDS011;30743;52.008;5.644;2022-08-21T11:04:48;3.57;;;1.30;;
45007;SDS011;30743;52.008;5.644;2022-08-21T11:07:20;3.40;;;1.00;;
45007;SDS011;30743;52.008;5.644;2022-08-21T11:09:51;5.78;;;1.42;;
45007;SDS011;30743;52.008;5.644;2022-08-21T11:15:11;5.97;;;1.35;;
45007;SDS011;30743;52.008;5.644;2022-08-21T11:17:43;6.03;;;1.45;;
45007;SDS011;30743;52.008;5.644;2022-08-21T11:20:20;4.45;;;1.38;;
45007;SDS011;30743;52.008;5.644;2022-08-21T11:22:56;5.00;;;1.40;;
45007;SDS011;30743;52.008;5.644;2022-08-21T11:27:56;8.15;;;1.63;;
45007;SDS011;30743;52.008;5.644;2022-08-21T11:30:27;7.40;;;1.58;;
45007;SDS011;30743;52.008;5.644;2022-08-21T11:38:57;3.13;;;1.30;;
45007;SDS011;30743;52.008;5.644;2022-08-21T11:44:50;4.47;;;1.10;;
45007;SDS011;30743;52.008;5.644;2022-08-21T11:47:38;5.53;;;1.45;;
45007;SDS011;30743;52.008;5.644;2022-08-21T11:50:15;3.13;;;0.95;;
45007;SDS011;30743;52.008;5.644;2022-08-21T11:52:52;5.03;;;1.10;;
45007;SDS011;30743;52.008;5.644;2022-08-21T11:55:35;5.35;;;1.25;;
45007;SDS011;30743;52.008;5.644;2022-08-21T11:58:14;3.90;;;1.20;;
45007;SDS011;30743;52.008;5.644;2022-08-21T12:01:00;5.22;;;1.35;;
45007;SDS011;30743;52.008;5.644;2022-08-21T12:04:16;3.60;;;1.00;;
45007;SDS011;30743;52.008;5.644;2022-08-21T12:06:29;3.58;;;1.10;;
45007;SDS011;30743;52.008;5.644;2022-08-21T12:09:29;6.72;;;1.52;;
45007;SDS011;30743;52.008;5.644;2022-08-21T12:14:51;4.05;;;1.17;;
45007;SDS011;30743;52.008;5.644;2022-08-21T12:17:38;3.88;;;1.00;;
45007;SDS011;30743;52.008;5.644;2022-08-21T12:20:21;3.25;;;1.20;;
45007;SDS011;30743;52.008;5.644;2022-08-21T12:25:38;4.82;;;1.20;;
45007;SDS011;30743;52.008;5.644;2022-08-21T12:28:25;3.38;;;1.10;;
45007;SDS011;30743;52.008;5.644;2022-08-21T12:30:52;3.10;;;1.00;;
45007;SDS011;30743;52.008;5.644;2022-08-21T12:33:22;5.47;;;1.00;;
45007;SDS011;30743;52.008;5.644;2022-08-21T12:36:00;5.15;;;1.10;;
45007;SDS011;30743;52.008;5.644;2022-08-21T12:41:34;3.92;;;1.25;;
45007;SDS011;30743;52.008;5.644;2022-08-21T12:44:13;3.75;;;0.82;;
45007;SDS011;30743;52.008;5.644;2022-08-21T12:46:50;3.13;;;1.02;;
45007;SDS011;30743;52.008;5.644;2022-08-21T12:49:35;1.95;;;0.70;;
45007;SDS011;30743;52.008;5.644;2022-08-21T12:52:29;5.22;;;1.33;;
45007;SDS011;30743;52.008;5.644;2022-08-21T12:55:00;4.22;;;1.40;;
45007;SDS011;30743;52.008;5.644;2022-08-21T12:57:27;4.70;;;1.10;;
45007;SDS011;30743;52.008;5.644;2022-08-21T12:59:54;2.83;;;1.10;;
45007;SDS011;30743;52.008;5.644;2022-08-21T13:02:26;2.67;;;0.93;;
45007;SDS011;30743;52.008;5.644;2022-08-21T13:04:56;7.22;;;1.30;;
45007;SDS011;30743;52.008;5.644;2022-08-21T13:07:27;2.85;;;0.90;;
45007;SDS011;30743;52.008;5.644;2022-08-21T13:09:57;3.17;;;0.95;;
45007;SDS011;30743;52.008;5.644;2022-08-21T13:12:29;5.50;;;1.15;;
45007;SDS011;30743;52.008;5.644;2022-08-21T13:14:57;4.38;;;1.20;;
45007;SDS011;30743;52.008;5.644;2022-08-21T13:17:25;3.03;;;1.00;;
45007;SDS011;30743;52.008;5.644;2022-08-21T13:19:57;3.85;;;1.05;;
45007;SDS011;30743;52.008;5.644;2022-08-21T13:22:25;3.40;;;0.90;;
45007;SDS011;30743;52.008;5.644;2022-08-21T13:24:51;3.53;;;1.05;;
45007;SDS011;30743;52.008;5.644;2022-08-21T13:27:26;5.15;;;1.00;;
45007;SDS011;30743;52.008;5.644;2022-08-21T13:30:10;2.65;;;1.10;;
45007;SDS011;30743;52.008;5.644;2022-08-21T13:32:41;2.28;;;0.82;;
45007;SDS011;30743;52.008;5.644;2022-08-21T13:35:16;4.50;;;1.10;;
45007;SDS011;30743;52.008;5.644;2022-08-21T13:38:03;4.97;;;0.77;;
45007;SDS011;30743;52.008;5.644;2022-08-21T13:40:45;2.95;;;0.90;;
45007;SDS011;30743;52.008;5.644;2022-08-21T13:43:21;3.15;;;1.30;;
45007;SDS011;30743;52.008;5.644;2022-08-21T13:45:53;5.28;;;1.10;;
45007;SDS011;30743;52.008;5.644;2022-08-21T13:48:20;2.90;;;0.90;;
45007;SDS011;30743;52.008;5.644;2022-08-21T13:50:48;2.63;;;0.80;;
45007;SDS011;30743;52.008;5.644;2022-08-21T13:53:34;4.13;;;1.25;;
45007;SDS011;30743;52.008;5.644;2022-08-21T13:56:10;3.47;;;0.90;;
45007;SDS011;30743;52.008;5.644;2022-08-21T13:58:51;3.53;;;1.00;;
45007;SDS011;30743;52.008;5.644;2022-08-21T14:01:25;4.90;;;0.98;;
45007;SDS011;30743;52.008;5.644;2022-08-21T14:04:04;4.88;;;1.00;;
45007;SDS011;30743;52.008;5.644;2022-08-21T14:06:37;5.15;;;1.30;;
45007;SDS011;30743;52.008;5.644;2022-08-21T14:09:08;3.88;;;1.05;;
45007;SDS011;30743;52.008;5.644;2022-08-21T14:11:44;4.47;;;0.93;;
45007;SDS011;30743;52.008;5.644;2022-08-21T14:14:20;2.90;;;0.80;;
45007;SDS011;30743;52.008;5.644;2022-08-21T14:16:58;3.70;;;1.02;;
45007;SDS011;30743;52.008;5.644;2022-08-21T14:19:37;1.63;;;0.80;;
45007;SDS011;30743;52.008;5.644;2022-08-21T14:27:31;2.78;;;0.93;;
45007;SDS011;30743;52.008;5.644;2022-08-21T14:30:08;4.43;;;1.45;;
45007;SDS011;30743;52.008;5.644;2022-08-21T14:32:40;1.90;;;0.95;;
45007;SDS011;30743;52.008;5.644;2022-08-21T14:35:06;4.10;;;1.13;;
45007;SDS011;30743;52.008;5.644;2022-08-21T14:37:32;3.08;;;0.82;;
45007;SDS011;30743;52.008;5.644;2022-08-21T14:39:58;3.50;;;0.90;;
45007;SDS011;30743;52.008;5.644;2022-08-21T14:42:24;6.30;;;1.25;;
45007;SDS011;30743;52.008;5.644;2022-08-21T14:44:50;3.25;;;1.10;;
45007;SDS011;30743;52.008;5.644;2022-08-21T14:47:16;2.80;;;0.90;;
45007;SDS011;30743;52.008;5.644;2022-08-21T14:49:42;3.55;;;1.30;;
45007;SDS011;30743;52.008;5.644;2022-08-21T14:52:08;6.25;;;1.27;;
45007;SDS011;30743;52.008;5.644;2022-08-21T14:54:33;4.00;;;1.10;;
45007;SDS011;30743;52.008;5.644;2022-08-21T14:57:04;5.05;;;1.40;;
45007;SDS011;30743;52.008;5.644;2022-08-21T14:59:32;3.97;;;1.15;;
45007;SDS011;30743;52.008;5.644;2022-08-21T15:01:58;3.70;;;1.20;;
45007;SDS011;30743;52.008;5.644;2022-08-21T15:04:24;5.95;;;0.90;;
45007;SDS011;30743;52.008;5.644;2022-08-21T15:06:50;3.92;;;0.93;;
45007;SDS011;30743;52.008;5.644;2022-08-21T15:09:15;6.53;;;1.33;;
45007;SDS011;30743;52.008;5.644;2022-08-21T15:11:41;3.45;;;1.30;;
45007;SDS011;30743;52.008;5.644;2022-08-21T15:14:07;3.03;;;1.02;;
45007;SDS011;30743;52.008;5.644;2022-08-21T15:16:35;3.28;;;0.90;;
45007;SDS011;30743;52.008;5.644;2022-08-21T15:19:01;3.00;;;1.10;;
45007;SDS011;30743;52.008;5.644;2022-08-21T15:21:27;4.47;;;1.27;;
45007;SDS011;30743;52.008;5.644;2022-08-21T15:23:52;3.25;;;1.13;;
45007;SDS011;30743;52.008;5.644;2022-08-21T15:26:19;3.22;;;1.00;;
45007;SDS011;30743;52.008;5.644;2022-08-21T15:28:46;3.13;;;0.82;;
45007;SDS011;30743;52.008;5.644;2022-08-21T15:31:12;4.70;;;1.23;;
45007;SDS011;30743;52.008;5.644;2022-08-21T15:33:37;6.55;;;1.48;;
45007;SDS011;30743;52.008;5.644;2022-08-21T15:36:03;3.10;;;1.13;;
45007;SDS011;30743;52.008;5.644;2022-08-21T15:38:29;3.83;;;1.23;;
45007;SDS011;30743;52.008;5.644;2022-08-21T15:40:54;3.00;;;1.00;;
45007;SDS011;30743;52.008;5.644;2022-08-21T15:43:32;5.30;;;1.05;;
45007;SDS011;30743;52.008;5.644;2022-08-21T15:46:10;2.72;;;1.05;;
45007;SDS011;30743;52.008;5.644;2022-08-21T15:48:38;2.77;;;1.13;;
45007;SDS011;30743;52.008;5.644;2022-08-21T15:51:03;4.20;;;1.05;;
45007;SDS011;30743;52.008;5.644;2022-08-21T15:53:29;3.95;;;1.13;;
45007;SDS011;30743;52.008;5.644;2022-08-21T15:55:56;2.55;;;0.73;;
45007;SDS011;30743;52.008;5.644;2022-08-21T15:58:25;5.45;;;1.27;;
45007;SDS011;30743;52.008;5.644;2022-08-21T16:00:50;3.30;;;1.10;;
45007;SDS011;30743;52.008;5.644;2022-08-21T16:03:17;6.60;;;1.50;;
45007;SDS011;30743;52.008;5.644;2022-08-21T16:05:46;3.42;;;0.90;;
45007;SDS011;30743;52.008;5.644;2022-08-21T16:08:14;6.22;;;1.35;;
45007;SDS011;30743;52.008;5.644;2022-08-21T16:10:40;4.90;;;1.50;;
45007;SDS011;30743;52.008;5.644;2022-08-21T16:13:14;4.43;;;1.02;;
45007;SDS011;30743;52.008;5.644;2022-08-21T16:15:45;4.60;;;1.20;;
45007;SDS011;30743;52.008;5.644;2022-08-21T16:18:11;4.18;;;0.95;;
45007;SDS011;30743;52.008;5.644;2022-08-21T16:20:36;5.80;;;1.38;;
45007;SDS011;30743;52.008;5.644;2022-08-21T16:23:02;4.85;;;1.40;;